Time;durP1;ratioP1;P1;durP2;ratioP2;P2;SDS_P1;SDS_P2;PMS_P1;PMS_P2;Temp;Humidity;BMP_temperature;BMP_pressure;BME280_temperature;BME280_humidity;BME280_pressure;Samples;Min_cycle;Max_cycle;Signal;HPM_P1;HPM_P2
2021/05/28 00:00:14;;;;;;;;;;;;;;;11.74;59.41;98338.37;1623708;88;24421;-91
2021/05/28 00:02:42;;;;;;;;;;;;;;;11.72;59.48;98336.80;1657431;85;20238;-90
2021/05/28 00:05:17;;;;;;;;;;;;;;;11.71;59.58;98332.03;1662588;84;24845;-89
2021/05/28 00:07:43;;;;;;;;;;;;;;;11.70;59.67;98338.69;1656964;85;22150;-88
2021/05/28 00:10:13;;;;;;;;;;;;;;;11.65;59.74;98336.89;1657651;84;26020;-90
2021/05/28 00:12:39;;;;;;;;;;;;;;;11.59;59.81;98337.35;1647175;85;24591;-88
2021/05/28 00:15:12;;;;;;;;;;;;;;;11.55;59.85;98347.25;1656809;85;20218;-87
2021/05/28 00:17:40;;;;;;;;;;;;;;;11.55;59.92;98343.78;1653196;85;24881;-87
2021/05/28 00:20:13;;;;;;;;;;;;;;;11.54;60.00;98334.25;1664924;85;22078;-87
2021/05/28 00:22:39;;;;;;;;;;;;;;;11.52;60.10;98334.83;1656255;85;26018;-87
2021/05/28 00:25:06;;;;;;;;;;;;;;;11.51;60.17;98340.54;1659978;84;24516;-87
2021/05/28 00:27:37;;;;;;;;;;;;;;;11.54;60.24;98336.87;1609335;86;20230;-87
2021/05/28 00:30:03;;;;;;;;;;;;;;;11.57;60.32;98331.37;1630851;85;24611;-89
2021/05/28 00:32:45;;;;;;;;;;;;;;;11.54;60.38;98330.31;1696045;83;22067;-89
2021/05/28 00:37:50;;;;;;;;;;;;;;;11.46;60.52;98345.29;1690890;84;24516;-85
2021/05/28 00:40:16;;;;;;;;;;;;;;;11.52;60.59;98351.86;1672210;85;20251;-88
2021/05/28 00:42:43;;;;;;;;;;;;;;;11.49;60.62;98352.94;1663917;85;24701;-88
2021/05/28 00:45:09;;;;;;;;;;;;;;;11.49;60.67;98346.86;1697598;83;21957;-88
2021/05/28 00:47:51;;;;;;;;;;;;;;;11.48;60.73;98344.72;1705596;83;26018;-90
2021/05/28 00:50:29;;;;;;;;;;;;;;;11.44;60.76;98347.69;1691244;83;24524;-91
2021/05/28 00:52:58;;;;;;;;;;;;;;;11.41;60.83;98351.83;1691590;84;20566;-90
2021/05/28 00:55:32;;;;;;;;;;;;;;;11.41;60.89;98356.59;1696469;84;24875;-89
2021/05/28 00:57:58;;;;;;;;;;;;;;;11.41;60.92;98359.69;1704214;83;21985;-90
2021/05/28 01:00:25;;;;;;;;;;;;;;;11.40;60.96;98356.73;1669050;85;25943;-88
2021/05/28 01:02:52;;;;;;;;;;;;;;;11.31;60.98;98348.59;1666082;85;24404;-88
2021/05/28 01:05:18;;;;;;;;;;;;;;;11.35;61.04;98359.67;1662740;85;20264;-88
2021/05/28 01:07:44;;;;;;;;;;;;;;;11.36;61.09;98363.13;1694373;83;20324;-88
2021/05/28 01:10:22;;;;;;;;;;;;;;;11.30;61.13;98366.56;1669615;85;22132;-88
2021/05/28 01:12:49;;;;;;;;;;;;;;;11.25;61.17;98360.83;1667600;85;26460;-88
2021/05/28 01:15:15;;;;;;;;;;;;;;;11.22;61.21;98362.37;1662732;85;24584;-87
2021/05/28 01:17:45;;;;;;;;;;;;;;;11.19;61.27;98360.44;1668546;85;20228;-88
2021/05/28 01:20:12;;;;;;;;;;;;;;;11.11;61.29;98360.18;1668926;85;24780;-88
2021/05/28 01:22:39;;;;;;;;;;;;;;;11.06;61.34;98363.14;1671010;85;22085;-87
2021/05/28 01:25:05;;;;;;;;;;;;;;;11.01;61.39;98363.11;1663877;85;25935;-88
2021/05/28 01:27:31;;;;;;;;;;;;;;;10.99;61.43;98372.38;1696780;83;24531;-88
2021/05/28 01:30:01;;;;;;;;;;;;;;;10.97;61.48;98368.19;1701828;83;20185;-88
2021/05/28 01:32:27;;;;;;;;;;;;;;;10.94;61.52;98369.26;1668839;83;24831;-88
2021/05/28 01:34:53;;;;;;;;;;;;;;;10.93;61.55;98370.20;1674894;84;22088;-88
2021/05/28 01:37:25;;;;;;;;;;;;;;;10.93;61.60;98370.20;1631624;86;21039;-87
2021/05/28 01:39:53;;;;;;;;;;;;;;;10.87;61.62;98370.64;1661069;86;24525;-87
2021/05/28 01:42:19;;;;;;;;;;;;;;;10.81;61.65;98375.00;1660723;86;20195;-87
2021/05/28 01:44:57;;;;;;;;;;;;;;;10.74;61.69;98371.17;1662109;86;24902;-88
2021/05/28 01:47:26;;;;;;;;;;;;;;;10.73;61.75;98372.95;1663416;86;21969;-88
2021/05/28 01:49:53;;;;;;;;;;;;;;;10.76;61.80;98371.88;1662944;85;25940;-85
2021/05/28 01:52:19;;;;;;;;;;;;;;;10.78;61.86;98368.69;1660986;86;24632;-85
2021/05/28 01:54:45;;;;;;;;;;;;;;;10.78;61.91;98363.45;1661181;86;20215;-88
2021/05/28 01:57:12;;;;;;;;;;;;;;;10.82;61.97;98367.52;1659552;86;24772;-88
2021/05/28 01:59:38;;;;;;;;;;;;;;;10.81;62.02;98359.30;1659339;85;21974;-88
2021/05/28 02:02:05;;;;;;;;;;;;;;;10.80;62.05;98366.31;1660042;85;26111;-88
2021/05/28 02:04:37;;;;;;;;;;;;;;;10.84;62.09;98363.02;1658367;86;24380;-88
2021/05/28 02:07:04;;;;;;;;;;;;;;;10.90;62.15;98365.20;1658258;86;20199;-88
2021/05/28 02:09:30;;;;;;;;;;;;;;;10.90;62.17;98368.66;1661630;86;24931;-85
2021/05/28 02:12:00;;;;;;;;;;;;;;;10.89;62.17;98371.38;1664910;85;22033;-85
2021/05/28 02:14:27;;;;;;;;;;;;;;;10.88;62.19;98371.01;1662477;86;25982;-85
2021/05/28 02:16:53;;;;;;;;;;;;;;;10.86;62.21;98367.65;1659259;86;25240;-85
2021/05/28 02:19:22;;;;;;;;;;;;;;;10.77;62.23;98358.69;1663509;86;20228;-88
2021/05/28 02:21:49;;;;;;;;;;;;;;;10.75;62.26;98365.80;1659413;86;24941;-88
2021/05/28 02:24:16;;;;;;;;;;;;;;;10.75;62.30;98362.34;1659284;86;21991;-88
2021/05/28 02:26:45;;;;;;;;;;;;;;;10.72;62.34;98366.51;1663322;85;25993;-88
2021/05/28 02:29:11;;;;;;;;;;;;;;;10.68;62.35;98370.30;1662439;86;25010;-88
2021/05/28 02:31:37;;;;;;;;;;;;;;;10.59;62.36;98364.39;1672166;84;20208;-88
2021/05/28 02:34:04;;;;;;;;;;;;;;;10.56;62.41;98364.62;1681244;84;24958;-88
2021/05/28 02:36:30;;;;;;;;;;;;;;;10.54;62.46;98363.88;1681550;84;22083;-88
2021/05/28 02:38:56;;;;;;;;;;;;;;;10.51;62.50;98360.19;1682297;84;25805;-88
2021/05/28 02:41:23;;;;;;;;;;;;;;;10.44;62.52;98356.69;1680908;84;24396;-87
2021/05/28 02:43:49;;;;;;;;;;;;;;;10.45;62.59;98353.14;1681418;84;20284;-86
2021/05/28 02:46:21;;;;;;;;;;;;;;;10.43;62.65;98355.02;1680700;84;25468;-86
2021/05/28 02:48:46;;;;;;;;;;;;;;;10.33;62.68;98357.08;1681440;84;21913;-85
2021/05/28 02:51:12;;;;;;;;;;;;;;;10.31;62.73;98361.09;1680390;85;26023;-86
2021/05/28 02:53:38;;;;;;;;;;;;;;;10.21;62.77;98363.99;1680998;84;24254;-88
2021/05/28 02:56:10;;;;;;;;;;;;;;;10.16;62.80;98373.06;1679085;85;20395;-88
2021/05/28 02:58:41;;;;;;;;;;;;;;;10.19;62.90;98369.82;1681153;85;24890;-88
2021/05/28 03:01:09;;;;;;;;;;;;;;;10.19;62.96;98376.36;1681903;84;21966;-87
2021/05/28 03:03:40;;;;;;;;;;;;;;;10.16;63.01;98373.94;1679734;85;25963;-87
2021/05/28 03:06:12;;;;;;;;;;;;;;;10.17;63.05;98374.78;1679920;84;24553;-88
2021/05/28 03:08:42;;;;;;;;;;;;;;;10.18;63.12;98379.91;1681551;85;20287;-88
2021/05/28 03:11:08;;;;;;;;;;;;;;;10.18;63.17;98385.14;1667368;84;24484;-88
2021/05/28 03:13:35;;;;;;;;;;;;;;;10.18;63.19;98385.61;1680754;84;22057;-88
2021/05/28 03:16:02;;;;;;;;;;;;;;;10.16;63.21;98387.02;1681322;84;25968;-88
2021/05/28 03:18:44;;;;;;;;;;;;;;;10.06;63.24;98383.33;1681524;84;24512;-89
2021/05/28 03:23:35;;;;;;;;;;;;;;;9.96;63.33;98390.97;1651230;86;25540;-86
2021/05/28 03:26:01;;;;;;;;;;;;;;;9.97;63.40;98394.42;1679620;85;22969;-89
2021/05/28 03:28:27;;;;;;;;;;;;;;;9.95;63.46;98398.44;1683001;85;26070;-89
2021/05/28 03:30:53;;;;;;;;;;;;;;;9.90;63.51;98394.47;1680082;84;24362;-88
2021/05/28 03:33:20;;;;;;;;;;;;;;;9.91;63.58;98399.59;1698131;84;20289;-88
2021/05/28 03:35:46;;;;;;;;;;;;;;;9.84;63.63;98397.48;1693946;84;24774;-89
2021/05/28 03:38:17;;;;;;;;;;;;;;;9.79;63.68;98399.58;1697536;84;20357;-88
2021/05/28 03:40:43;;;;;;;;;;;;;;;9.73;63.76;98399.52;1696947;84;26643;-88
2021/05/28 03:43:09;;;;;;;;;;;;;;;9.75;63.90;98402.04;1699134;84;24528;-88
2021/05/28 03:45:35;;;;;;;;;;;;;;;9.78;64.02;98399.20;1698657;84;20743;-88
2021/05/28 03:48:01;;;;;;;;;;;;;;;9.98;64.15;98402.64;1696271;84;20497;-88
2021/05/28 03:50:27;;;;;;;;;;;;;;;10.24;64.32;98401.72;1699756;84;22002;-89
2021/05/28 03:52:53;;;;;;;;;;;;;;;10.33;64.43;98403.69;1698785;84;21017;-88
2021/05/28 03:55:19;;;;;;;;;;;;;;;10.38;64.50;98402.90;1700179;84;24373;-89
2021/05/28 03:57:52;;;;;;;;;;;;;;;10.45;64.57;98410.70;1695529;84;20330;-89
2021/05/28 04:00:22;;;;;;;;;;;;;;;10.53;64.60;98404.09;1693602;84;24856;-89
2021/05/28 04:02:48;;;;;;;;;;;;;;;10.65;64.65;98401.44;1696843;84;22217;-89
2021/05/28 04:05:15;;;;;;;;;;;;;;;10.86;64.73;98403.83;1699426;84;26148;-89
2021/05/28 04:07:43;;;;;;;;;;;;;;;11.09;64.81;98406.11;1699148;84;20210;-89
2021/05/28 04:10:15;;;;;;;;;;;;;;;11.24;64.80;98404.99;1699192;84;20296;-89
2021/05/28 04:12:41;;;;;;;;;;;;;;;11.27;64.77;98412.64;1697319;84;24747;-89
2021/05/28 04:15:09;;;;;;;;;;;;;;;11.38;64.76;98413.64;1699214;84;21869;-88
2021/05/28 04:17:35;;;;;;;;;;;;;;;11.51;64.73;98412.61;1699429;84;26000;-88
2021/05/28 04:20:04;;;;;;;;;;;;;;;11.61;64.69;98416.25;1699442;84;25229;-89
2021/05/28 04:22:37;;;;;;;;;;;;;;;11.65;64.60;98411.60;1695562;82;20195;-88
2021/05/28 04:25:10;;;;;;;;;;;;;;;11.65;64.52;98413.75;1697718;84;25010;-88
2021/05/28 04:27:37;;;;;;;;;;;;;;;11.66;64.45;98414.59;1699001;84;21958;-90
2021/05/28 04:30:26;;;;;;;;;;;;;;;11.68;64.38;98420.53;1698589;84;26007;-90
2021/05/28 04:32:52;;;;;;;;;;;;;;;11.70;64.37;98424.73;1687223;84;24457;-89
2021/05/28 04:35:25;;;;;;;;;;;;;;;11.75;64.34;98419.17;1722457;81;20204;-89
2021/05/28 04:37:52;;;;;;;;;;;;;;;11.78;64.33;98429.45;1713766;81;24988;-89
2021/05/28 04:40:26;;;;;;;;;;;;;;;11.76;64.30;98431.80;1716994;82;22089;-88
2021/05/28 04:42:52;;;;;;;;;;;;;;;11.83;64.31;98430.41;1724843;82;26081;-86
2021/05/28 04:45:18;;;;;;;;;;;;;;;11.89;64.34;98433.38;1725982;81;20212;-85
2021/05/28 04:47:44;;;;;;;;;;;;;;;11.97;64.33;98431.50;1716109;81;20383;-85
2021/05/28 04:50:12;;;;;;;;;;;;;;;12.03;64.36;98436.29;1728088;81;20307;-85
2021/05/28 04:52:38;;;;;;;;;;;;;;;12.01;64.37;98430.31;1719300;81;22089;-85
2021/05/28 04:55:04;;;;;;;;;;;;;;;12.07;64.38;98428.06;1719621;81;25931;-85
2021/05/28 04:57:30;;;;;;;;;;;;;;;12.24;64.39;98428.56;1710663;82;24469;-88
2021/05/28 04:59:56;;;;;;;;;;;;;;;12.36;64.40;98426.31;1719929;82;20232;-89
2021/05/28 05:02:22;;;;;;;;;;;;;;;12.47;64.39;98433.72;1718802;81;20245;-86
2021/05/28 05:04:48;;;;;;;;;;;;;;;12.53;64.35;98428.00;1720689;81;20408;-86
2021/05/28 05:07:14;;;;;;;;;;;;;;;12.52;64.27;98435.98;1720310;81;26011;-88
2021/05/28 05:09:40;;;;;;;;;;;;;;;12.61;64.25;98436.58;1722632;82;24427;-88
2021/05/28 05:12:07;;;;;;;;;;;;;;;12.71;64.22;98441.46;1720452;81;20574;-90
2021/05/28 05:14:33;;;;;;;;;;;;;;;12.81;64.22;98435.87;1727024;81;25034;-90
2021/05/28 05:16:59;;;;;;;;;;;;;;;12.88;64.19;98444.91;1713815;82;22005;-89
2021/05/28 05:19:25;;;;;;;;;;;;;;;12.99;64.20;98450.62;1720050;82;25912;-89
2021/05/28 05:21:53;;;;;;;;;;;;;;;13.12;64.19;98455.78;1720367;82;24380;-89
2021/05/28 05:24:19;;;;;;;;;;;;;;;13.18;64.17;98453.98;1724940;81;20295;-88
2021/05/28 05:26:45;;;;;;;;;;;;;;;13.26;64.12;98455.50;1715694;82;24240;-88
2021/05/28 05:29:11;;;;;;;;;;;;;;;13.34;64.08;98456.58;1723610;81;22183;-85
2021/05/28 05:31:39;;;;;;;;;;;;;;;13.43;64.05;98458.92;1719798;81;21005;-89
2021/05/28 05:34:05;;;;;;;;;;;;;;;13.51;64.01;98458.31;1727277;81;24477;-88
2021/05/28 05:36:40;;;;;;;;;;;;;;;13.57;63.99;98456.50;1733844;81;20410;-89
2021/05/28 05:39:07;;;;;;;;;;;;;;;13.64;63.95;98456.34;1737205;82;25005;-89
2021/05/28 05:41:34;;;;;;;;;;;;;;;13.72;63.89;98463.97;1733357;82;22279;-88
2021/05/28 05:44:03;;;;;;;;;;;;;;;13.81;63.85;98460.57;1734459;82;25835;-88
2021/05/28 05:46:28;;;;;;;;;;;;;;;13.98;63.82;98463.13;1733410;81;26300;-89
2021/05/28 05:48:54;;;;;;;;;;;;;;;14.09;63.75;98460.91;1733760;81;20905;-89
2021/05/28 05:51:20;;;;;;;;;;;;;;;14.15;63.61;98457.77;1736718;82;20401;-88
2021/05/28 05:53:47;;;;;;;;;;;;;;;14.11;63.46;98460.31;1736923;81;21916;-88
2021/05/28 05:56:13;;;;;;;;;;;;;;;14.11;63.35;98463.78;1735134;81;26081;-89
2021/05/28 05:58:45;;;;;;;;;;;;;;;14.18;63.31;98465.42;1735115;82;24411;-88
2021/05/28 06:01:12;;;;;;;;;;;;;;;14.24;63.24;98467.03;1737999;82;20279;-88
2021/05/28 06:03:39;;;;;;;;;;;;;;;14.32;63.17;98472.98;1737883;81;24752;-87
2021/05/28 06:06:05;;;;;;;;;;;;;;;14.38;63.06;98471.66;1737340;81;22070;-87
2021/05/28 06:08:31;;;;;;;;;;;;;;;14.34;62.90;98471.06;1733207;82;25999;-88
2021/05/28 06:10:57;;;;;;;;;;;;;;;14.25;62.69;98468.71;1734260;82;24455;-88
2021/05/28 06:13:23;;;;;;;;;;;;;;;14.18;62.51;98465.42;1730701;82;20342;-88
2021/05/28 06:15:50;;;;;;;;;;;;;;;14.16;62.40;98468.66;1735833;81;20739;-88
2021/05/28 06:18:16;;;;;;;;;;;;;;;14.23;62.36;98472.45;1737732;82;22126;-89
2021/05/28 06:20:42;;;;;;;;;;;;;;;14.32;62.38;98466.88;1734314;81;26057;-88
2021/05/28 06:23:08;;;;;;;;;;;;;;;14.37;62.34;98467.36;1733670;82;24511;-88
2021/05/28 06:25:36;;;;;;;;;;;;;;;14.42;62.30;98474.38;1734772;82;20354;-87
2021/05/28 06:28:03;;;;;;;;;;;;;;;14.44;62.25;98469.83;1734483;82;24935;-88
2021/05/28 06:30:29;;;;;;;;;;;;;;;14.44;62.19;98477.25;1736055;82;21996;-88
2021/05/28 06:32:55;;;;;;;;;;;;;;;14.37;62.12;98473.94;1735479;81;20960;-86
2021/05/28 06:35:22;;;;;;;;;;;;;;;14.21;62.04;98465.98;1721140;81;24323;-86
2021/05/28 06:38:00;;;;;;;;;;;;;;;14.11;61.89;98465.58;1723058;81;20275;-86
2021/05/28 06:40:34;;;;;;;;;;;;;;;14.10;61.82;98471.31;1696401;81;24904;-88
2021/05/28 06:43:00;;;;;;;;;;;;;;;14.08;61.78;98471.91;1719994;81;22097;-87
2021/05/28 06:45:26;;;;;;;;;;;;;;;14.11;61.70;98470.84;1719441;81;25920;-88
2021/05/28 06:47:52;;;;;;;;;;;;;;;14.06;61.58;98469.08;1723407;81;20410;-88
2021/05/28 06:50:19;;;;;;;;;;;;;;;14.06;61.53;98470.39;1721323;81;20321;-88
2021/05/28 06:52:46;;;;;;;;;;;;;;;14.12;61.49;98472.52;1717539;81;24891;-88
2021/05/28 06:55:13;;;;;;;;;;;;;;;14.09;61.45;98474.91;1719792;81;22194;-89
2021/05/28 06:57:39;;;;;;;;;;;;;;;14.04;61.34;98470.98;1725742;81;25893;-88
2021/05/28 07:00:09;;;;;;;;;;;;;;;14.08;61.26;98473.70;1721293;81;24462;-88
2021/05/28 07:02:38;;;;;;;;;;;;;;;14.18;61.21;98469.37;1723805;83;20716;-88
2021/05/28 07:05:16;;;;;;;;;;;;;;;14.30;61.24;98469.63;1721505;81;25151;-87
2021/05/28 07:07:42;;;;;;;;;;;;;;;14.37;61.15;98470.83;1718328;81;21840;-88
2021/05/28 07:10:09;;;;;;;;;;;;;;;14.39;61.01;98478.60;1717894;81;21164;-89
2021/05/28 07:12:35;;;;;;;;;;;;;;;14.43;60.90;98470.78;1713507;81;24521;-89
2021/05/28 07:15:07;;;;;;;;;;;;;;;14.53;60.81;98467.23;1727311;81;20256;-88
2021/05/28 07:17:34;;;;;;;;;;;;;;;14.59;60.67;98469.83;1721423;81;24862;-89
2021/05/28 07:20:00;;;;;;;;;;;;;;;14.68;60.61;98468.19;1720420;81;22206;-86
2021/05/28 07:22:26;;;;;;;;;;;;;;;14.85;60.61;98471.53;1718017;81;25970;-87
2021/05/28 07:24:53;;;;;;;;;;;;;;;14.98;60.56;98470.34;1720376;81;24440;-89
2021/05/28 07:27:19;;;;;;;;;;;;;;;15.04;60.48;98470.30;1725901;81;20427;-86
2021/05/28 07:29:46;;;;;;;;;;;;;;;15.04;60.42;98468.98;1715650;81;25614;-89
2021/05/28 07:32:12;;;;;;;;;;;;;;;15.03;60.31;98475.21;1721050;81;21885;-87
2021/05/28 07:34:40;;;;;;;;;;;;;;;15.06;60.23;98473.61;1691342;81;23549;-89
2021/05/28 07:37:06;;;;;;;;;;;;;;;15.11;60.12;98471.92;1691100;84;25082;-86
2021/05/28 07:39:32;;;;;;;;;;;;;;;15.20;60.02;98464.51;1690923;84;20311;-86
2021/05/28 07:41:59;;;;;;;;;;;;;;;15.35;59.97;98473.69;1690237;84;24775;-85
2021/05/28 07:44:33;;;;;;;;;;;;;;;15.45;59.92;98478.02;1691308;83;21625;-88
2021/05/28 07:47:06;;;;;;;;;;;;;;;15.48;59.80;98475.60;1689650;84;26007;-86
2021/05/28 07:49:28;;;;;;;;;;;;;;;15.44;59.56;98477.66;1687916;83;24561;-86
2021/05/28 07:51:54;;;;;;;;;;;;;;;15.48;59.39;98473.80;1688460;84;20228;-86
2021/05/28 07:54:20;;;;;;;;;;;;;;;15.53;59.21;98477.37;1689596;84;24855;-87
2021/05/28 07:56:46;;;;;;;;;;;;;;;15.55;59.06;98475.92;1688035;84;22055;-88
2021/05/28 07:59:12;;;;;;;;;;;;;;;15.61;58.96;98477.51;1691160;83;25994;-86
2021/05/28 08:01:39;;;;;;;;;;;;;;;15.60;58.84;98476.34;1690858;84;20251;-86
2021/05/28 08:04:05;;;;;;;;;;;;;;;15.58;58.75;98469.05;1691074;84;20269;-89
2021/05/28 08:06:34;;;;;;;;;;;;;;;15.67;58.72;98474.32;1688219;84;20226;-89
2021/05/28 08:09:00;;;;;;;;;;;;;;;15.69;58.71;98471.07;1689459;84;21945;-89
2021/05/28 08:11:30;;;;;;;;;;;;;;;15.77;58.65;98473.00;1689984;84;21135;-89
2021/05/28 08:14:03;;;;;;;;;;;;;;;15.90;58.63;98473.56;1690841;84;23977;-88
2021/05/28 08:16:35;;;;;;;;;;;;;;;16.10;58.58;98476.53;1691022;84;20581;-89
2021/05/28 08:19:03;;;;;;;;;;;;;;;16.27;58.55;98470.53;1685826;84;25017;-87
2021/05/28 08:21:36;;;;;;;;;;;;;;;16.29;58.39;98467.77;1691032;84;22545;-86
2021/05/28 08:24:02;;;;;;;;;;;;;;;16.21;58.13;98475.06;1687753;84;26015;-86
2021/05/28 08:26:29;;;;;;;;;;;;;;;16.09;57.90;98474.05;1690895;84;25282;-86
2021/05/28 08:29:02;;;;;;;;;;;;;;;15.94;57.75;98473.62;1688044;84;20318;-86
2021/05/28 08:31:28;;;;;;;;;;;;;;;15.91;57.65;98471.28;1689400;84;24855;-86
2021/05/28 08:33:54;;;;;;;;;;;;;;;15.84;57.58;98471.00;1694306;81;20831;-86
2021/05/28 08:36:21;;;;;;;;;;;;;;;15.79;57.55;98475.86;1722549;82;21201;-86
2021/05/28 08:38:47;;;;;;;;;;;;;;;15.77;57.51;98474.31;1726500;81;24426;-86
2021/05/28 08:41:16;;;;;;;;;;;;;;;15.81;57.44;98473.92;1722604;81;20319;-86
2021/05/28 08:43:43;;;;;;;;;;;;;;;15.98;57.47;98472.88;1733076;81;24853;-86
2021/05/28 08:46:21;;;;;;;;;;;;;;;16.16;57.45;98475.97;1720020;81;22079;-86
2021/05/28 08:48:45;;;;;;;;;;;;;;;16.38;57.48;98473.98;1731593;81;26882;-85
2021/05/28 08:51:11;;;;;;;;;;;;;;;16.39;57.20;98468.56;1729317;82;24516;-86
2021/05/28 08:53:37;;;;;;;;;;;;;;;16.36;56.95;98475.47;1733128;81;20287;-88
2021/05/28 08:56:08;;;;;;;;;;;;;;;16.37;56.71;98470.99;1723746;82;20441;-89
2021/05/28 08:58:34;;;;;;;;;;;;;;;16.32;56.42;98468.78;1731571;81;22719;-89
2021/05/28 09:01:14;;;;;;;;;;;;;;;16.20;56.14;98468.11;1729245;81;25937;-89
2021/05/28 09:03:43;;;;;;;;;;;;;;;16.11;55.99;98465.48;1726958;81;24430;-86
2021/05/28 09:06:20;;;;;;;;;;;;;;;16.22;55.96;98467.97;1723624;82;20261;-86
2021/05/28 09:08:49;;;;;;;;;;;;;;;16.45;56.01;98464.03;1724460;81;24815;-86
2021/05/28 09:11:17;;;;;;;;;;;;;;;16.68;56.00;98460.59;1722011;81;21995;-86
2021/05/28 09:13:51;;;;;;;;;;;;;;;16.78;55.94;98457.42;1730079;81;26174;-86
2021/05/28 09:16:18;;;;;;;;;;;;;;;16.75;55.79;98460.86;1723442;82;24452;-88
2021/05/28 09:18:52;;;;;;;;;;;;;;;16.78;55.69;98456.59;1720122;82;20245;-88
2021/05/28 09:21:23;;;;;;;;;;;;;;;16.72;55.55;98464.13;1724743;81;25625;-89
2021/05/28 09:23:55;;;;;;;;;;;;;;;16.68;55.38;98464.56;1722055;82;22697;-89
2021/05/28 09:26:23;;;;;;;;;;;;;;;16.78;55.32;98466.67;1722423;82;26054;-89
2021/05/28 09:28:55;;;;;;;;;;;;;;;16.99;55.32;98463.80;1728094;81;24131;-88
2021/05/28 09:31:23;;;;;;;;;;;;;;;17.07;55.19;98462.07;1728347;81;20572;-85
2021/05/28 09:33:50;;;;;;;;;;;;;;;17.00;54.93;98467.63;1725141;81;24947;-86
2021/05/28 09:36:23;;;;;;;;;;;;;;;16.83;54.66;98456.50;1681269;83;22118;-86
2021/05/28 09:38:56;;;;;;;;;;;;;;;16.71;54.47;98465.58;1692521;83;26829;-86
2021/05/28 09:41:42;;;;;;;;;;;;;;;16.46;54.22;98468.35;1686965;83;24505;-85
2021/05/28 09:44:16;;;;;;;;;;;;;;;16.37;54.11;98470.51;1705201;83;20173;-89
2021/05/28 09:46:55;;;;;;;;;;;;;;;16.31;54.09;98467.11;1684051;83;24979;-89
2021/05/28 09:49:25;;;;;;;;;;;;;;;16.26;54.07;98475.95;1655808;83;23079;-89
2021/05/28 09:52:05;;;;;;;;;;;;;;;16.33;54.13;98479.22;1663957;84;25991;-89
2021/05/28 09:54:31;;;;;;;;;;;;;;;16.46;54.24;98479.41;1660602;83;25189;-88
2021/05/28 09:56:57;;;;;;;;;;;;;;;16.63;54.28;98480.85;1682785;83;20225;-89
2021/05/28 09:59:23;;;;;;;;;;;;;;;16.72;54.27;98480.47;1692021;83;25024;-88
2021/05/28 10:02:00;;;;;;;;;;;;;;;16.80;54.27;98476.59;1689553;83;20319;-89
2021/05/28 10:04:26;;;;;;;;;;;;;;;16.99;54.32;98471.73;1694414;83;26046;-89
2021/05/28 10:06:53;;;;;;;;;;;;;;;17.17;54.30;98474.43;1691222;83;20425;-89
2021/05/28 10:09:20;;;;;;;;;;;;;;;17.27;54.19;98470.75;1683879;83;20310;-89
2021/05/28 10:11:46;;;;;;;;;;;;;;;17.39;54.09;98472.70;1688177;83;24924;-89
2021/05/28 10:14:12;;;;;;;;;;;;;;;17.43;53.97;98466.95;1674639;84;20824;-89
2021/05/28 10:16:38;;;;;;;;;;;;;;;17.57;53.90;98477.50;1675340;83;25970;-89
2021/05/28 10:19:05;;;;;;;;;;;;;;;17.60;53.74;98467.16;1687447;83;24549;-89
2021/05/28 10:21:33;;;;;;;;;;;;;;;17.56;53.60;98470.05;1686542;83;20571;-89
2021/05/28 10:24:00;;;;;;;;;;;;;;;17.63;53.51;98469.00;1681494;83;24838;-89
2021/05/28 10:26:31;;;;;;;;;;;;;;;17.70;53.42;98470.56;1688944;83;21958;-89
2021/05/28 10:28:57;;;;;;;;;;;;;;;17.78;53.33;98469.33;1692066;83;26032;-86
2021/05/28 10:34:11;;;;;;;;;;;;;;;17.92;53.11;98464.81;1695353;82;20237;-89
2021/05/28 10:36:41;;;;;;;;;;;;;;;18.00;52.91;98464.89;1716967;82;20300;-86
2021/05/28 10:39:08;;;;;;;;;;;;;;;18.12;52.79;98469.42;1723607;82;21917;-86
2021/05/28 10:41:41;;;;;;;;;;;;;;;18.14;52.63;98469.63;1702103;81;26204;-88
2021/05/28 10:44:08;;;;;;;;;;;;;;;18.22;52.54;98471.52;1722314;81;24449;-89
2021/05/28 10:46:36;;;;;;;;;;;;;;;18.24;52.29;98474.83;1719358;81;20244;-89
2021/05/28 10:49:10;;;;;;;;;;;;;;;18.21;52.00;98470.69;1721110;81;24757;-89
2021/05/28 10:51:38;;;;;;;;;;;;;;;18.22;51.80;98472.84;1725675;81;21998;-90
2021/05/28 10:54:11;;;;;;;;;;;;;;;18.17;51.50;98475.93;1718805;81;25884;-90
2021/05/28 10:56:39;;;;;;;;;;;;;;;18.14;51.31;98466.98;1722148;81;25133;-89
2021/05/28 10:59:19;;;;;;;;;;;;;;;18.18;51.25;98465.67;1723541;81;20236;-89
2021/05/28 11:01:47;;;;;;;;;;;;;;;18.20;51.22;98473.48;1724597;81;24957;-89
2021/05/28 11:04:17;;;;;;;;;;;;;;;18.13;51.16;98475.07;1719154;82;22237;-86
2021/05/28 11:07:03;;;;;;;;;;;;;;;18.09;51.13;98475.88;1716960;82;25118;-86
2021/05/28 11:09:50;;;;;;;;;;;;;;;18.06;51.09;98468.72;1722904;81;24457;-86
2021/05/28 11:12:34;;;;;;;;;;;;;;;18.03;51.05;98469.87;1720363;82;20288;-89
2021/05/28 11:15:09;;;;;;;;;;;;;;;17.94;50.92;98470.80;1721046;82;24865;-89
2021/05/28 11:17:40;;;;;;;;;;;;;;;17.82;50.73;98469.36;1715851;81;22017;-89
2021/05/28 11:20:10;;;;;;;;;;;;;;;17.79;50.66;98466.50;1681330;83;26044;-89
2021/05/28 11:22:45;;;;;;;;;;;;;;;17.74;50.59;98462.64;1690315;84;24529;-89
2021/05/28 11:25:24;;;;;;;;;;;;;;;17.78;50.59;98456.09;1691509;84;20218;-89
2021/05/28 11:27:56;;;;;;;;;;;;;;;17.88;50.64;98454.19;1688824;84;24776;-89
2021/05/28 11:30:21;;;;;;;;;;;;;;;17.98;50.69;98451.80;1689871;84;22110;-86
2021/05/28 11:32:48;;;;;;;;;;;;;;;18.04;50.68;98443.73;1688172;84;25960;-89
2021/05/28 11:35:25;;;;;;;;;;;;;;;18.14;50.69;98447.61;1697227;83;24396;-89
2021/05/28 11:38:01;;;;;;;;;;;;;;;18.30;50.71;98450.37;1679007;84;20323;-89
2021/05/28 11:40:30;;;;;;;;;;;;;;;18.33;50.49;98448.23;1713186;83;25843;-89
2021/05/28 11:43:16;;;;;;;;;;;;;;;18.30;50.25;98449.05;1714039;83;21965;-89
2021/05/28 11:45:46;;;;;;;;;;;;;;;18.26;50.10;98446.37;1683210;84;26122;-86
2021/05/28 11:48:16;;;;;;;;;;;;;;;18.31;50.06;98444.09;1684449;84;24453;-86
2021/05/28 11:50:52;;;;;;;;;;;;;;;18.32;50.00;98431.19;1684386;84;20681;-86
2021/05/28 11:53:22;;;;;;;;;;;;;;;18.40;49.98;98433.38;1711828;83;24890;-89
2021/05/28 11:55:53;;;;;;;;;;;;;;;18.50;49.87;98431.94;1710596;83;22086;-89
2021/05/28 11:58:29;;;;;;;;;;;;;;;18.64;49.79;98430.57;1735768;82;26765;-89
2021/05/28 12:01:02;;;;;;;;;;;;;;;18.75;49.79;98435.11;1735167;82;24452;-89
2021/05/28 12:03:28;;;;;;;;;;;;;;;18.72;49.66;98433.25;1737138;81;21460;-90
2021/05/28 12:05:55;;;;;;;;;;;;;;;18.67;49.49;98434.22;1733597;82;20256;-89
2021/05/28 12:08:29;;;;;;;;;;;;;;;18.69;49.46;98436.23;1734255;81;21995;-88
2021/05/28 12:10:57;;;;;;;;;;;;;;;18.73;49.41;98438.89;1733650;82;25957;-88
2021/05/28 12:13:25;;;;;;;;;;;;;;;18.76;49.26;98437.27;1732957;82;25250;-88
2021/05/28 12:15:55;;;;;;;;;;;;;;;18.82;49.17;98439.78;1734763;82;20373;-86
2021/05/28 12:18:31;;;;;;;;;;;;;;;18.82;49.04;98441.91;1710931;83;24740;-86
2021/05/28 12:21:06;;;;;;;;;;;;;;;18.82;48.94;98441.91;1681572;84;21959;-86
2021/05/28 12:23:34;;;;;;;;;;;;;;;18.85;48.87;98439.45;1687260;84;26469;-86
2021/05/28 12:26:06;;;;;;;;;;;;;;;18.94;48.84;98441.13;1732417;81;24461;-86
2021/05/28 12:28:39;;;;;;;;;;;;;;;18.99;48.73;98438.83;1734329;81;20899;-86
2021/05/28 12:31:17;;;;;;;;;;;;;;;18.95;48.58;98448.11;1728840;81;24778;-86
2021/05/28 12:33:46;;;;;;;;;;;;;;;18.92;48.51;98439.98;1730287;82;22413;-86
2021/05/28 12:36:13;;;;;;;;;;;;;;;18.88;48.45;98445.75;1731629;81;26031;-86
2021/05/28 12:38:40;;;;;;;;;;;;;;;18.84;48.34;98438.61;1732163;81;25450;-86
2021/05/28 12:41:08;;;;;;;;;;;;;;;18.87;48.28;98438.31;1736959;81;20593;-86
2021/05/28 12:43:36;;;;;;;;;;;;;;;18.84;48.20;98439.11;1735589;81;24752;-86
2021/05/28 12:46:03;;;;;;;;;;;;;;;18.82;48.12;98439.25;1739727;81;21925;-86
2021/05/28 12:48:42;;;;;;;;;;;;;;;18.80;48.10;98441.25;1741205;81;25906;-86
2021/05/28 12:51:09;;;;;;;;;;;;;;;18.80;48.07;98442.58;1734415;81;24411;-86
2021/05/28 12:53:39;;;;;;;;;;;;;;;18.77;48.00;98441.55;1737301;81;20550;-86
2021/05/28 12:56:24;;;;;;;;;;;;;;;18.75;47.90;98440.90;1734532;81;25532;-86
2021/05/28 12:58:52;;;;;;;;;;;;;;;18.70;47.74;98443.20;1735261;81;21980;-86
2021/05/28 13:01:21;;;;;;;;;;;;;;;18.60;47.62;98443.28;1737895;81;25463;-86
2021/05/28 13:03:49;;;;;;;;;;;;;;;18.53;47.54;98440.09;1738613;81;24455;-86